India Meteorological Department
Airport METARs
Date : 28-04-2017
Sl. # Airport METAR
1 Ahmedabad VAAH 281930Z 30008KT 4000 FU NSC 30/16 Q1008 NOSIG=
2 Amritsar VIAR 281930Z 00000KT 5000 HZ NSC 26/10 Q1005 NOSIG=
3 Bangalore VOBL 281930Z VRB02KT 6000 SCT008 BKN080 22/18 Q1015 NOSIG=
4 Bhopal VABP 281800Z 25008KT 6000 NSC 28/05 Q1010 NOSIG=
5 Bhubaneswar VEBS 281900Z 21008KT 4000 HZ FEW020 28/27 Q1006 NOSIG =
6 Chennai VOMM 281930Z 19004KT 6000 FEW020 30/25 Q1009 NOSIG=
7 Coimbatore VOCB 281930Z NIL=
8 Colombo VCBI 281910Z 11003KT 9000 SCT017 28/25 Q1010 NOSIG=
9 Delhi VIDP 281930Z 21005KT 3500 HZ FEW040 SCT100 29/11 Q1006 NOSIG=
10 Gauhati VEGT 281930Z NIL=
11 Gaya VEGY 281930Z NIL=
12 Goa VOGO 281930Z VRB02KT 6000 FEW020 28/22 Q1009 NOSIG=
13 Hyderabad VOHS 281930Z 18007KT 5000 HZ SCT015 FEW030CB BKN100 28/18 Q1011 NOSIG=
14 Indore VAID 281800Z 25006KT 6000 NSC 29/04 Q1011 NOSIG=
15 Jaipur VIJP 281930Z VRB02KT 3500 HZ NSC 30/06 Q1008 NOSIG=
16 Kochi VOCI 281930Z 00000KT 4000 HZ FEW020 28/24 Q1010 NOSIG=
17 Kolkata VECC 281930Z 25012KT 3200 HZ SCT020 28/26 Q1005 NOSIG=
18 Kozhikode VOCL 281930Z 01003KT 6000 FEW015 28/25 Q1010 NOSIG=
19 Lucknow VILK 281830Z 34003KT 3000 HZ NSC 30/12 Q1004=
20 Madurai VOMD 281900Z 00000KT 6000 FEW020 29/22 Q1010 NOSIG=
21 Mumbai VABB 281930Z 32004KT 3500 HZ NSC 29/24 Q1010 NOSIG=
22 Nagpur VANP 281930Z 00000KT 4000 HZ NSC 30/05 Q1007 NOSIG=
23 Patna VEPT 281930Z NIL=
24 Trichy VOTR 281930Z 00000KT 5000 HZ FEW018 31/19 Q1008 NOSIG=
25 Trivandrum VOTV 281930Z NIL=
26 Varanasi VEBN 281830Z 00000KT 2500 HZ NSC 27/17 Q1005=
27 Vizag VOVZ 281900Z 00000KT 4000 BR FEW018 29/26 Q1006 NOSIG =
28 Male VRMM 281900Z 32005KT 9999 FEW018 BKN280 29/25 Q1010 NOSIG=
29 Gan VRMG 281900Z 29005KT 9999 FEW019 29/25 Q1011 NOSIG=
30 Kathmandu VNKT 281930Z NIL=
31 Dhaka VGHS 281930Z 17012KT 4000 HZ SCT012 BKN100 29/26 Q1005 NOSIG=
32 Colombo VCBI 281910Z 11003KT 9000 SCT017 28/25 Q1010 NOSIG=
33 Karachi OPKC 281930Z NIL=
34 Lahore OPLA 281930Z NIL=
35 Bhuj-Rudra VABJ 281930Z 25003KT 6000 FEW015 SCT020 27/23 Q1009 NOSIG=
36 Agra VIAG 281830Z 00000KT 6000 FEW100 24/13 Q1005 NOSIG=
37 Gwalior VIGR 281800Z 00000KT 4000 HZ FEW100 29/18 Q1006=
38 Pune VAPO 281930Z 28005KT 6000 SKC 25/17 Q1013 NOSIG=

 

--- End of List ---